Time,TemperatureF,DewpointF,PressureIn,WindDirection,WindDirectionDegrees,WindSpeedMPH,WindSpeedGustMPH,Humidity,HourlyPrecipIn,Conditions,Clouds,dailyrainin,SoftwareType,DateUTC
2013-11-09 00:00:00,40.8,37.3,30.28,NE,53,0.0,0.0,87,0.00,,,0.00,Meteorologica,2013-11-09 05:00:00,
2013-11-09 00:01:00,40.7,37.3,30.28,NE,53,0.0,0.0,87,0.00,,,0.00,Meteorologica,2013-11-09 05:01:00,
2013-11-09 00:03:00,40.6,37.3,30.28,NE,53,0.0,0.0,88,0.00,,,0.00,Meteorologica,2013-11-09 05:03:00,
2013-11-09 00:09:00,40.4,37.3,30.28,NE,53,0.0,0.0,88,0.00,,,0.00,Meteorologica,2013-11-09 05:09:00,
2013-11-09 00:14:00,40.4,37.6,30.28,NE,53,0.0,0.0,89,0.00,,,0.00,Meteorologica,2013-11-09 05:14:00,
2013-11-09 00:19:00,40.4,38.1,30.27,NE,53,0.0,0.0,91,0.00,,,0.00,Meteorologica,2013-11-09 05:19:00,
2013-11-09 00:24:00,40.3,38.3,30.28,NE,53,0.0,0.0,92,0.00,,,0.00,Meteorologica,2013-11-09 05:24:00,
2013-11-09 00:29:00,40.3,38.3,30.28,NE,53,0.0,0.0,92,0.00,,,0.00,Meteorologica,2013-11-09 05:29:00,
2013-11-09 00:34:00,40.2,38.4,30.28,NE,53,0.0,0.0,93,0.00,,,0.00,Meteorologica,2013-11-09 05:34:00,
2013-11-09 00:40:00,40.1,38.4,30.28,NE,53,0.0,0.0,93,0.00,,,0.00,Meteorologica,2013-11-09 05:40:00,
2013-11-09 00:45:00,40.1,38.4,30.27,NE,53,0.0,0.0,93,0.00,,,0.00,Meteorologica,2013-11-09 05:45:00,
2013-11-09 00:50:00,40.0,38.3,30.28,NE,53,0.0,0.0,93,0.00,,,0.00,Meteorologica,2013-11-09 05:50:00,
2013-11-09 00:55:00,40.0,38.3,30.29,NE,53,0.0,0.0,93,0.00,,,0.00,Meteorologica,2013-11-09 05:55:00,
2013-11-09 01:00:00,40.0,38.3,30.28,NE,53,0.0,0.0,93,0.00,,,0.00,Meteorologica,2013-11-09 06:00:00,
2013-11-09 01:05:00,39.8,38.2,30.29,NE,53,0.0,0.0,94,0.00,,,0.00,Meteorologica,2013-11-09 06:05:00,
2013-11-09 01:10:00,39.7,38.0,30.29,NE,53,0.0,0.0,93,0.00,,,0.00,Meteorologica,2013-11-09 06:10:00,
2013-11-09 01:15:00,39.7,38.1,30.28,NE,53,0.0,0.0,94,0.00,,,0.00,Meteorologica,2013-11-09 06:15:00,
2013-11-09 01:21:00,39.6,38.1,30.28,NE,53,0.0,0.0,94,0.00,,,0.00,Meteorologica,2013-11-09 06:21:00,
2013-11-09 01:26:00,39.4,38.1,30.28,NE,53,0.0,0.0,95,0.00,,,0.00,Meteorologica,2013-11-09 06:26:00,
2013-11-09 01:31:00,39.4,38.0,30.29,NE,53,0.0,0.0,94,0.00,,,0.00,Meteorologica,2013-11-09 06:31:00,
2013-11-09 01:36:00,39.4,38.1,30.29,NE,53,0.0,0.0,95,0.00,,,0.00,Meteorologica,2013-11-09 06:36:00,
2013-11-09 01:41:00,39.2,38.1,30.29,NE,53,0.0,0.0,96,0.00,,,0.00,Meteorologica,2013-11-09 06:41:00,
2013-11-09 01:46:00,39.1,37.9,30.29,NE,53,0.0,0.0,95,0.00,,,0.00,Meteorologica,2013-11-09 06:46:00,
2013-11-09 01:51:00,39.1,37.9,30.29,NE,53,0.0,0.0,95,0.00,,,0.00,Meteorologica,2013-11-09 06:51:00,
2013-11-09 01:56:00,39.1,38.0,30.29,NE,53,0.0,0.0,96,0.00,,,0.00,Meteorologica,2013-11-09 06:56:00,
2013-11-09 02:01:00,38.9,37.8,30.29,NE,53,0.0,0.0,96,0.00,,,0.00,Meteorologica,2013-11-09 07:01:00,
2013-11-09 02:07:00,38.8,37.6,30.29,NE,53,0.0,0.0,95,0.00,,,0.00,Meteorologica,2013-11-09 07:07:00,
2013-11-09 02:12:00,38.5,36.8,30.30,NE,53,0.0,0.0,93,0.00,,,0.00,Meteorologica,2013-11-09 07:12:00,
2013-11-09 02:17:00,38.6,36.8,30.30,NE,53,0.0,0.0,93,0.00,,,0.00,Meteorologica,2013-11-09 07:17:00,
2013-11-09 02:22:00,38.5,36.6,30.29,NE,53,0.0,0.0,93,0.00,,,0.00,Meteorologica,2013-11-09 07:22:00,
2013-11-09 02:27:00,38.5,36.6,30.30,NE,53,0.0,0.0,92,0.00,,,0.00,Meteorologica,2013-11-09 07:27:00,
2013-11-09 02:32:00,38.4,36.4,30.30,NE,53,0.0,0.0,92,0.00,,,0.00,Meteorologica,2013-11-09 07:32:00,
2013-11-09 02:38:00,38.5,36.5,30.30,NE,53,0.0,0.0,92,0.00,,,0.00,Meteorologica,2013-11-09 07:38:00,
2013-11-09 02:43:00,38.5,36.9,30.30,NE,53,0.0,0.0,94,0.00,,,0.00,Meteorologica,2013-11-09 07:43:00,
2013-11-09 02:48:00,38.4,36.9,30.30,NE,53,0.0,0.0,94,0.00,,,0.00,Meteorologica,2013-11-09 07:48:00,
2013-11-09 02:53:00,38.5,37.2,30.30,NE,53,0.0,0.0,95,0.00,,,0.00,Meteorologica,2013-11-09 07:53:00,
2013-11-09 02:58:00,38.4,37.3,30.30,NE,53,0.0,0.0,95,0.00,,,0.00,Meteorologica,2013-11-09 07:58:00,
2013-11-09 03:03:00,38.4,37.3,30.30,NE,53,0.0,0.0,96,0.00,,,0.00,Meteorologica,2013-11-09 08:03:00,
2013-11-09 03:08:00,38.3,37.2,30.30,NE,53,0.0,0.0,95,0.00,,,0.00,Meteorologica,2013-11-09 08:08:00,
2013-11-09 03:13:00,38.1,36.8,30.30,NE,53,0.0,0.0,95,0.00,,,0.00,Meteorologica,2013-11-09 08:13:00,
2013-11-09 03:19:00,38.0,36.7,30.30,NE,53,0.0,0.0,95,0.00,,,0.00,Meteorologica,2013-11-09 08:19:00,
2013-11-09 03:24:00,38.0,36.7,30.30,NE,53,0.0,0.0,95,0.00,,,0.00,Meteorologica,2013-11-09 08:24:00,
2013-11-09 03:29:00,38.0,37.0,30.30,NE,53,0.0,0.0,96,0.00,,,0.00,Meteorologica,2013-11-09 08:29:00,
2013-11-09 03:35:00,37.9,37.0,30.30,NE,53,0.0,0.0,96,0.00,,,0.00,Meteorologica,2013-11-09 08:35:00,
2013-11-09 03:40:00,37.8,37.0,30.30,NE,53,0.0,0.0,97,0.00,,,0.00,Meteorologica,2013-11-09 08:40:00,
2013-11-09 03:45:00,37.8,37.1,30.30,NE,53,0.0,0.0,97,0.00,,,0.00,Meteorologica,2013-11-09 08:45:00,
2013-11-09 03:50:00,37.7,37.1,30.31,NE,53,0.0,0.0,97,0.00,,,0.00,Meteorologica,2013-11-09 08:50:00,
2013-11-09 03:55:00,37.5,37.2,30.31,NE,53,0.0,0.0,99,0.00,,,0.00,Meteorologica,2013-11-09 08:55:00,
2013-11-09 04:00:00,37.6,37.4,30.31,NE,53,0.0,0.0,99,0.00,,,0.00,Meteorologica,2013-11-09 09:00:00,
2013-11-09 04:05:00,37.3,37.0,30.31,NE,53,0.0,0.0,98,0.00,,,0.00,Meteorologica,2013-11-09 09:05:00,
2013-11-09 04:10:00,37.3,37.0,30.31,NE,53,0.0,0.0,98,0.00,,,0.00,Meteorologica,2013-11-09 09:10:00,
2013-11-09 04:15:00,37.2,36.9,30.31,NE,53,0.0,0.0,98,0.00,,,0.00,Meteorologica,2013-11-09 09:15:00,
2013-11-09 04:21:00,37.1,36.9,30.30,NE,53,0.0,0.0,99,0.00,,,0.00,Meteorologica,2013-11-09 09:21:00,
2013-11-09 04:26:00,36.7,36.5,30.30,NE,53,0.0,0.0,99,0.00,,,0.00,Meteorologica,2013-11-09 09:26:00,
2013-11-09 04:31:00,36.7,36.4,30.30,NE,53,0.0,0.0,98,0.00,,,0.00,Meteorologica,2013-11-09 09:31:00,
2013-11-09 04:36:00,36.5,36.3,30.30,NE,53,0.0,0.0,99,0.00,,,0.00,Meteorologica,2013-11-09 09:36:00,
2013-11-09 04:41:00,36.3,36.2,30.30,NE,53,0.0,0.0,99,0.00,,,0.00,Meteorologica,2013-11-09 09:41:00,
2013-11-09 04:47:00,36.2,36.2,30.30,NE,53,0.0,0.0,99,0.00,,,0.00,Meteorologica,2013-11-09 09:47:00,
2013-11-09 04:52:00,36.3,36.3,30.30,NE,53,0.0,0.0,100,0.00,,,0.00,Meteorologica,2013-11-09 09:52:00,
2013-11-09 04:57:00,36.4,36.4,30.30,NE,53,0.0,0.0,100,0.00,,,0.00,Meteorologica,2013-11-09 09:57:00,
2013-11-09 05:02:00,36.2,36.2,30.30,NE,53,0.0,0.0,100,0.00,,,0.00,Meteorologica,2013-11-09 10:02:00,
2013-11-09 05:08:00,36.2,36.2,30.30,NE,53,0.0,0.0,100,0.00,,,0.00,Meteorologica,2013-11-09 10:08:00,
2013-11-09 05:13:00,36.3,36.3,30.30,NE,53,0.0,0.0,100,0.00,,,0.00,Meteorologica,2013-11-09 10:13:00,
2013-11-09 05:18:00,36.1,36.1,30.30,NE,53,0.0,0.0,100,0.00,,,0.00,Meteorologica,2013-11-09 10:18:00,
2013-11-09 05:23:00,36.2,36.2,30.30,NE,53,0.0,0.0,100,0.00,,,0.00,Meteorologica,2013-11-09 10:23:00,
2013-11-09 05:29:00,36.1,36.1,30.31,NE,53,0.0,0.0,100,0.00,,,0.00,Meteorologica,2013-11-09 10:29:00,
2013-11-09 05:34:00,35.7,35.7,30.31,NE,53,0.0,0.0,100,0.00,,,0.00,Meteorologica,2013-11-09 10:34:00,
2013-11-09 05:39:00,35.7,35.7,30.31,NE,53,0.0,0.0,100,0.00,,,0.00,Meteorologica,2013-11-09 10:39:00,
2013-11-09 05:44:00,35.6,35.6,30.31,NE,53,0.0,0.0,100,0.00,,,0.00,Meteorologica,2013-11-09 10:44:00,
2013-11-09 05:49:00,35.3,35.3,30.31,NE,53,0.0,0.0,100,0.00,,,0.00,Meteorologica,2013-11-09 10:49:00,
2013-11-09 05:54:00,35.4,35.4,30.31,NE,53,0.0,0.0,100,0.00,,,0.00,Meteorologica,2013-11-09 10:54:00,
2013-11-09 06:00:00,35.3,35.3,30.31,NE,53,0.0,0.0,100,0.00,,,0.00,Meteorologica,2013-11-09 11:00:00,
2013-11-09 06:05:00,35.3,35.3,30.32,NE,53,0.0,0.0,100,0.00,,,0.00,Meteorologica,2013-11-09 11:05:00,
2013-11-09 06:10:00,35.2,35.2,30.32,NE,53,0.0,0.0,100,0.00,,,0.00,Meteorologica,2013-11-09 11:10:00,
2013-11-09 06:15:00,35.3,35.3,30.31,NE,53,0.0,0.0,100,0.00,,,0.00,Meteorologica,2013-11-09 11:15:00,
2013-11-09 06:21:00,35.0,35.0,30.32,NE,53,0.0,0.0,100,0.00,,,0.00,Meteorologica,2013-11-09 11:21:00,
2013-11-09 06:26:00,34.8,34.8,30.32,NE,53,0.0,0.0,100,0.00,,,0.00,Meteorologica,2013-11-09 11:26:00,
2013-11-09 06:31:00,34.9,34.9,30.32,NE,53,0.0,0.0,100,0.00,,,0.00,Meteorologica,2013-11-09 11:31:00,
2013-11-09 06:36:00,34.6,34.6,30.32,NE,53,0.0,0.0,100,0.00,,,0.00,Meteorologica,2013-11-09 11:36:00,
2013-11-09 06:41:00,34.7,34.7,30.32,NE,53,0.0,0.0,100,0.00,,,0.00,Meteorologica,2013-11-09 11:41:00,
2013-11-09 06:46:00,34.5,34.5,30.32,NE,53,0.0,0.0,100,0.00,,,0.00,Meteorologica,2013-11-09 11:46:00,
2013-11-09 06:51:00,34.3,34.3,30.32,NE,53,0.0,0.0,100,0.00,,,0.00,Meteorologica,2013-11-09 11:51:00,
2013-11-09 06:57:00,34.3,34.3,30.32,NE,53,0.0,0.0,100,0.00,,,0.00,Meteorologica,2013-11-09 11:57:00,
2013-11-09 07:02:00,34.3,34.3,30.32,NE,53,0.0,0.0,100,0.00,,,0.00,Meteorologica,2013-11-09 12:02:00,
2013-11-09 07:07:00,34.2,34.2,30.32,NE,53,0.0,0.0,100,0.00,,,0.00,Meteorologica,2013-11-09 12:07:00,
2013-11-09 07:12:00,34.2,34.2,30.32,NE,53,0.0,0.0,100,0.00,,,0.00,Meteorologica,2013-11-09 12:12:00,
2013-11-09 07:17:00,34.4,34.4,30.32,NE,53,0.0,0.0,100,0.00,,,0.00,Meteorologica,2013-11-09 12:17:00,
2013-11-09 07:23:00,34.6,34.6,30.31,NE,53,0.0,0.0,100,0.00,,,0.00,Meteorologica,2013-11-09 12:23:00,
2013-11-09 07:28:00,34.4,34.4,30.32,NE,53,0.0,0.0,100,0.00,,,0.00,Meteorologica,2013-11-09 12:28:00,
2013-11-09 07:33:00,34.7,34.7,30.32,NE,53,0.0,0.0,100,0.00,,,0.00,Meteorologica,2013-11-09 12:33:00,
2013-11-09 07:38:00,34.9,34.9,30.32,NE,53,0.0,0.0,100,0.00,,,0.00,Meteorologica,2013-11-09 12:38:00,
2013-11-09 07:43:00,35.0,35.0,30.32,NE,53,0.0,0.0,100,0.00,,,0.00,Meteorologica,2013-11-09 12:43:00,
2013-11-09 07:48:00,35.4,35.4,30.32,NE,53,0.0,0.0,100,0.00,,,0.00,Meteorologica,2013-11-09 12:48:00,
2013-11-09 07:54:00,35.5,35.5,30.32,NE,53,0.0,0.0,100,0.00,,,0.00,Meteorologica,2013-11-09 12:54:00,
2013-11-09 07:59:00,35.8,35.8,30.32,NE,53,0.0,0.0,100,0.00,,,0.00,Meteorologica,2013-11-09 12:59:00,
2013-11-09 08:04:00,35.8,35.8,30.33,NE,53,0.0,0.0,100,0.00,,,0.00,Meteorologica,2013-11-09 13:04:00,
2013-11-09 08:10:00,36.0,36.0,30.33,NE,53,0.0,0.0,100,0.00,,,0.00,Meteorologica,2013-11-09 13:10:00,
2013-11-09 08:15:00,36.1,36.1,30.33,NE,53,0.0,0.0,100,0.00,,,0.00,Meteorologica,2013-11-09 13:15:00,
2013-11-09 08:20:00,36.2,36.2,30.33,NE,53,0.0,0.0,100,0.00,,,0.00,Meteorologica,2013-11-09 13:20:00,
2013-11-09 08:25:00,36.2,36.2,30.34,NE,53,0.0,0.0,100,0.00,,,0.00,Meteorologica,2013-11-09 13:25:00,
2013-11-09 08:31:00,36.5,35.7,30.34,NE,53,0.0,0.0,96,0.00,,,0.00,Meteorologica,2013-11-09 13:31:00,
2013-11-09 08:36:00,36.8,35.4,30.34,NE,53,0.0,0.0,94,0.00,,,0.00,Meteorologica,2013-11-09 13:36:00,
2013-11-09 08:41:00,37.0,35.5,30.34,NE,53,0.0,0.0,94,0.00,,,0.00,Meteorologica,2013-11-09 13:41:00,
2013-11-09 08:46:00,37.3,36.0,30.35,NE,53,0.0,0.0,95,0.00,,,0.00,Meteorologica,2013-11-09 13:46:00,
2013-11-09 08:51:00,37.5,35.7,30.35,NE,53,0.0,0.0,93,0.00,,,0.00,Meteorologica,2013-11-09 13:51:00,
2013-11-09 08:56:00,37.8,35.2,30.34,NE,53,0.0,0.0,90,0.00,,,0.00,Meteorologica,2013-11-09 13:56:00,
2013-11-09 09:01:00,38.3,35.7,30.35,NE,53,0.0,0.0,90,0.00,,,0.00,Meteorologica,2013-11-09 14:01:00,
2013-11-09 09:06:00,38.8,36.0,30.35,NE,53,0.0,0.0,89,0.00,,,0.00,Meteorologica,2013-11-09 14:06:00,
2013-11-09 09:11:00,39.4,36.1,30.35,NE,53,0.0,0.0,87,0.00,,,0.00,Meteorologica,2013-11-09 14:11:00,
2013-11-09 09:16:00,40.0,35.0,30.35,SW,225,2.7,4.5,82,0.00,,,0.00,Meteorologica,2013-11-09 14:16:00,
2013-11-09 09:21:00,40.9,34.9,30.35,South,188,3.1,5.2,79,0.00,,,0.00,Meteorologica,2013-11-09 14:21:00,
2013-11-09 09:26:00,41.7,34.7,30.35,SE,141,0.6,6.2,76,0.00,,,0.00,Meteorologica,2013-11-09 14:26:00,
2013-11-09 09:31:00,42.3,34.9,30.35,SW,215,1.4,5.9,74,0.00,,,0.00,Meteorologica,2013-11-09 14:31:00,
2013-11-09 09:36:00,42.8,34.2,30.35,SSE,151,1.2,4.7,71,0.00,,,0.00,Meteorologica,2013-11-09 14:36:00,
2013-11-09 09:41:00,43.5,34.5,30.35,SSW,201,1.2,3.8,70,0.00,,,0.00,Meteorologica,2013-11-09 14:41:00,
2013-11-09 09:46:00,44.0,33.6,30.35,SSW,197,3.3,6.9,66,0.00,,,0.00,Meteorologica,2013-11-09 14:46:00,
2013-11-09 09:51:00,44.6,34.8,30.35,West,261,0.4,8.1,68,0.00,,,0.00,Meteorologica,2013-11-09 14:51:00,
2013-11-09 09:56:00,45.1,33.9,30.35,WNW,291,4.1,7.5,64,0.00,,,0.00,Meteorologica,2013-11-09 14:56:00,
2013-11-09 10:01:00,45.7,33.8,30.35,SSW,205,6.3,9.1,62,0.00,,,0.00,Meteorologica,2013-11-09 15:01:00,
2013-11-09 10:06:00,46.0,34.6,30.35,South,183,2.3,8.2,64,0.00,,,0.00,Meteorologica,2013-11-09 15:06:00,
2013-11-09 10:11:00,46.6,34.4,30.35,SSW,213,5.2,9.2,62,0.00,,,0.00,Meteorologica,2013-11-09 15:11:00,
2013-11-09 10:16:00,47.1,34.8,30.35,SSW,194,3.5,8.3,61,0.00,,,0.00,Meteorologica,2013-11-09 15:16:00,
2013-11-09 10:21:00,47.5,35.0,30.35,WSW,249,1.8,8.3,61,0.00,,,0.00,Meteorologica,2013-11-09 15:21:00,
2013-11-09 10:26:00,47.9,35.2,30.35,SW,232,1.4,6.3,61,0.00,,,0.00,Meteorologica,2013-11-09 15:26:00,
2013-11-09 10:31:00,48.4,35.1,30.35,SSW,211,1.9,5.7,59,0.00,,,0.00,Meteorologica,2013-11-09 15:31:00,
2013-11-09 10:36:00,48.7,34.8,30.35,WSW,240,3.5,6.4,58,0.00,,,0.00,Meteorologica,2013-11-09 15:36:00,
2013-11-09 11:00:00,50.7,35.7,30.35,SSW,193,3.3,7.2,56,0.00,,,0.00,Meteorologica,2013-11-09 16:00:00,
2013-11-09 11:05:00,51.2,35.6,30.35,SSW,210,1.2,6.2,54,0.00,,,0.00,Meteorologica,2013-11-09 16:05:00,
2013-11-09 11:10:00,51.9,35.9,30.35,South,178,3.8,6.0,54,0.00,,,0.00,Meteorologica,2013-11-09 16:10:00,
2013-11-09 11:15:00,52.5,35.8,30.34,SSW,206,2.1,6.0,52,0.00,,,0.00,Meteorologica,2013-11-09 16:15:00,
2013-11-09 11:20:00,53.3,35.5,30.34,West,268,2.7,7.6,50,0.00,,,0.00,Meteorologica,2013-11-09 16:20:00,
2013-11-09 11:25:00,53.7,35.5,30.34,SW,221,2.9,9.1,50,0.00,,,0.00,Meteorologica,2013-11-09 16:25:00,
2013-11-09 11:30:00,54.2,35.0,30.34,SSW,207,6.5,10.2,48,0.00,,,0.00,Meteorologica,2013-11-09 16:30:00,
2013-11-09 11:35:00,54.5,35.2,30.34,SSW,197,3.5,10.3,48,0.00,,,0.00,Meteorologica,2013-11-09 16:35:00,
2013-11-09 11:40:00,54.9,36.4,30.34,ESE,104,0.0,8.5,49,0.00,,,0.00,Meteorologica,2013-11-09 16:40:00,
2013-11-09 11:45:00,55.1,36.0,30.34,South,189,1.2,1.2,48,0.00,,,0.00,Meteorologica,2013-11-09 16:45:00,
2013-11-09 11:50:00,55.4,35.4,30.34,SW,221,4.8,4.8,46,0.00,,,0.00,Meteorologica,2013-11-09 16:50:00,
2013-11-09 11:55:00,55.5,36.2,30.33,SSE,162,0.7,7.8,48,0.00,,,0.00,Meteorologica,2013-11-09 16:55:00,
2013-11-09 12:00:00,55.9,36.6,30.33,SW,220,0.9,7.4,48,0.00,,,0.00,Meteorologica,2013-11-09 17:00:00,
2013-11-09 12:05:00,56.2,36.0,30.33,SSW,210,3.6,9.5,46,0.00,,,0.00,Meteorologica,2013-11-09 17:05:00,
2013-11-09 12:10:00,56.2,36.4,30.33,ESE,115,0.0,9.5,47,0.00,,,0.00,Meteorologica,2013-11-09 17:10:00,
2013-11-09 12:15:00,56.2,36.1,30.33,SSE,149,1.8,3.8,46,0.00,,,0.00,Meteorologica,2013-11-09 17:15:00,
2013-11-09 12:20:00,56.3,35.4,30.33,South,172,0.9,9.8,45,0.00,,,0.00,Meteorologica,2013-11-09 17:20:00,
2013-11-09 12:25:00,56.1,35.7,30.32,SSE,153,1.7,6.1,46,0.00,,,0.00,Meteorologica,2013-11-09 17:25:00,
2013-11-09 12:30:00,56.2,35.6,30.32,South,172,3.1,6.9,46,0.00,,,0.00,Meteorologica,2013-11-09 17:30:00,
2013-11-09 12:35:00,56.3,34.8,30.32,South,179,1.6,7.6,44,0.00,,,0.00,Meteorologica,2013-11-09 17:35:00,
2013-11-09 12:40:00,56.5,36.1,30.32,SSW,197,0.8,7.9,46,0.00,,,0.00,Meteorologica,2013-11-09 17:40:00,
2013-11-09 12:45:00,56.6,36.2,30.32,SSE,163,1.1,4.0,46,0.00,,,0.00,Meteorologica,2013-11-09 17:45:00,
2013-11-09 12:50:00,56.5,36.0,30.32,South,182,0.2,5.0,46,0.00,,,0.00,Meteorologica,2013-11-09 17:50:00,
2013-11-09 12:55:00,56.5,36.0,30.31,SW,220,2.5,8.4,46,0.00,,,0.00,Meteorologica,2013-11-09 17:55:00,
2013-11-09 13:00:00,56.3,36.0,30.31,SW,214,2.0,5.1,46,0.00,,,0.00,Meteorologica,2013-11-09 18:00:00,
2013-11-09 13:05:00,56.3,36.0,30.31,WSW,255,1.5,6.4,46,0.00,,,0.00,Meteorologica,2013-11-09 18:05:00,
2013-11-09 13:10:00,56.2,36.1,30.31,ESE,118,0.0,6.0,47,0.00,,,0.00,Meteorologica,2013-11-09 18:10:00,
2013-11-09 13:15:00,56.2,36.5,30.31,SSE,151,1.0,4.0,47,0.00,,,0.00,Meteorologica,2013-11-09 18:15:00,
2013-11-09 13:20:00,56.0,35.9,30.31,South,191,1.1,3.5,46,0.00,,,0.00,Meteorologica,2013-11-09 18:20:00,
2013-11-09 13:26:00,55.9,35.9,30.31,ESE,108,0.7,7.1,47,0.00,,,0.00,Meteorologica,2013-11-09 18:26:00,
2013-11-09 13:31:00,55.8,36.0,30.31,SSE,151,2.4,5.9,47,0.00,,,0.00,Meteorologica,2013-11-09 18:31:00,
2013-11-09 14:00:00,54.9,35.9,30.32,SE,141,0.2,2.7,48,0.00,,,0.00,Meteorologica,2013-11-09 19:00:00,
2013-11-09 14:05:00,54.8,36.0,30.32,SW,234,0.9,2.9,49,0.00,,,0.00,Meteorologica,2013-11-09 19:05:00,
2013-11-09 14:10:00,54.8,36.6,30.31,East,98,0.0,5.8,50,0.00,,,0.00,Meteorologica,2013-11-09 19:10:00,
2013-11-09 14:15:00,54.7,37.3,30.30,East,98,0.0,3.0,51,0.00,,,0.00,Meteorologica,2013-11-09 19:15:00,
2013-11-09 14:20:00,54.6,36.5,30.31,SSE,156,0.1,0.0,50,0.00,,,0.00,Meteorologica,2013-11-09 19:20:00,
2013-11-09 14:25:00,54.6,35.5,30.30,South,176,0.0,3.3,48,0.00,,,0.00,Meteorologica,2013-11-09 19:25:00,
2013-11-09 14:30:00,54.6,36.4,30.29,South,170,0.6,2.1,49,0.00,,,0.00,Meteorologica,2013-11-09 19:30:00,
2013-11-09 14:35:00,54.6,36.6,30.29,SSW,207,2.2,4.9,50,0.00,,,0.00,Meteorologica,2013-11-09 19:35:00,
2013-11-09 14:40:00,54.6,36.2,30.28,South,189,0.0,3.8,49,0.00,,,0.00,Meteorologica,2013-11-09 19:40:00,
2013-11-09 14:45:00,54.7,36.5,30.28,South,189,0.0,0.0,50,0.00,,,0.00,Meteorologica,2013-11-09 19:45:00,
2013-11-09 14:50:00,54.7,35.7,30.29,SSW,211,3.1,0.0,48,0.00,,,0.00,Meteorologica,2013-11-09 19:50:00,
2013-11-09 14:55:00,54.6,35.1,30.29,SSW,208,1.8,6.3,47,0.00,,,0.00,Meteorologica,2013-11-09 19:55:00,
2013-11-09 15:00:00,54.9,36.0,30.29,WSW,239,0.0,4.7,48,0.00,,,0.00,Meteorologica,2013-11-09 20:00:00,
2013-11-09 15:05:00,55.0,35.3,30.28,WSW,255,1.5,6.6,47,0.00,,,0.00,Meteorologica,2013-11-09 20:05:00,
2013-11-09 15:10:00,55.3,35.4,30.27,SW,215,3.0,5.5,47,0.00,,,0.00,Meteorologica,2013-11-09 20:10:00,
2013-11-09 15:15:00,55.3,35.8,30.28,SSW,194,0.0,5.7,47,0.00,,,0.00,Meteorologica,2013-11-09 20:15:00,
2013-11-09 15:20:00,55.5,35.7,30.27,SW,217,0.0,4.3,47,0.00,,,0.00,Meteorologica,2013-11-09 20:20:00,
2013-11-09 15:25:00,55.6,36.2,30.26,SW,217,0.0,4.5,48,0.00,,,0.00,Meteorologica,2013-11-09 20:25:00,
2013-11-09 15:30:00,55.8,35.9,30.25,NE,50,0.3,0.0,47,0.00,,,0.00,Meteorologica,2013-11-09 20:30:00,
2013-11-09 15:35:00,55.6,35.6,30.25,ESE,108,0.2,4.3,46,0.00,,,0.00,Meteorologica,2013-11-09 20:35:00,
2013-11-09 15:41:00,55.7,35.3,30.26,SSE,165,0.0,5.7,46,0.00,,,0.00,Meteorologica,2013-11-09 20:41:00,
2013-11-09 15:46:00,55.7,35.4,30.25,SE,134,0.7,3.2,46,0.00,,,0.00,Meteorologica,2013-11-09 20:46:00,
2013-11-09 15:51:00,55.7,35.0,30.25,South,186,0.8,3.2,45,0.00,,,0.00,Meteorologica,2013-11-09 20:51:00,
2013-11-09 15:56:00,55.6,35.2,30.25,ENE,64,0.5,4.3,46,0.00,,,0.00,Meteorologica,2013-11-09 20:56:00,
2013-11-09 16:01:00,55.6,35.4,30.24,SSW,194,1.7,6.0,46,0.00,,,0.00,Meteorologica,2013-11-09 21:01:00,
2013-11-09 16:06:00,55.7,35.4,30.24,SSW,194,2.9,6.7,46,0.00,,,0.00,Meteorologica,2013-11-09 21:06:00,
2013-11-09 16:11:00,55.8,35.4,30.24,SSE,149,0.9,5.1,46,0.00,,,0.00,Meteorologica,2013-11-09 21:11:00,
2013-11-09 16:16:00,55.7,36.0,30.25,SE,136,0.0,4.9,47,0.00,,,0.00,Meteorologica,2013-11-09 21:16:00,
2013-11-09 16:21:00,55.8,35.6,30.25,SE,136,0.0,0.0,46,0.00,,,0.00,Meteorologica,2013-11-09 21:21:00,
2013-11-09 16:26:00,55.8,35.9,30.25,SE,136,0.0,0.0,47,0.00,,,0.00,Meteorologica,2013-11-09 21:26:00,
2013-11-09 16:31:00,55.8,35.7,30.26,East,91,0.0,5.3,46,0.00,,,0.00,Meteorologica,2013-11-09 21:31:00,
2013-11-09 16:36:00,56.0,35.9,30.26,ESE,122,0.0,2.0,46,0.00,,,0.00,Meteorologica,2013-11-09 21:36:00,
2013-11-09 16:41:00,55.9,35.8,30.26,NE,40,0.4,4.1,46,0.00,,,0.00,Meteorologica,2013-11-09 21:41:00,
2013-11-09 16:46:00,55.8,35.7,30.25,SW,234,0.0,4.0,46,0.00,,,0.00,Meteorologica,2013-11-09 21:46:00,
2013-11-09 16:51:00,55.6,35.5,30.25,SSW,200,0.5,6.0,47,0.00,,,0.00,Meteorologica,2013-11-09 21:51:00,
2013-11-09 16:56:00,55.4,35.4,30.26,SW,218,2.5,5.5,46,0.00,,,0.00,Meteorologica,2013-11-09 21:56:00,
2013-11-09 17:01:00,55.3,35.4,30.26,SSE,158,1.6,4.7,47,0.00,,,0.00,Meteorologica,2013-11-09 22:01:00,
2013-11-09 17:06:00,55.1,35.5,30.26,SSW,193,0.0,5.3,47,0.00,,,0.00,Meteorologica,2013-11-09 22:06:00,
2013-11-09 17:11:00,55.1,35.9,30.26,SSW,204,0.0,3.7,48,0.00,,,0.00,Meteorologica,2013-11-09 22:11:00,
2013-11-09 17:16:00,54.9,35.9,30.26,South,190,1.2,4.3,48,0.00,,,0.00,Meteorologica,2013-11-09 22:16:00,
2013-11-09 17:21:00,54.8,36.2,30.26,SSW,210,0.0,1.9,49,0.00,,,0.00,Meteorologica,2013-11-09 22:21:00,
2013-11-09 17:26:00,54.6,36.7,30.26,SW,214,0.9,0.0,50,0.00,,,0.00,Meteorologica,2013-11-09 22:26:00,
2013-11-09 17:32:00,54.4,36.4,30.26,East,79,0.0,3.3,50,0.00,,,0.00,Meteorologica,2013-11-09 22:32:00,
2013-11-09 17:37:00,54.1,36.4,30.26,East,79,0.0,0.0,51,0.00,,,0.00,Meteorologica,2013-11-09 22:37:00,
2013-11-09 17:42:00,54.0,36.5,30.26,East,79,0.0,0.0,51,0.00,,,0.00,Meteorologica,2013-11-09 22:42:00,
2013-11-09 17:47:00,53.8,36.4,30.26,East,79,0.0,0.0,51,0.00,,,0.00,Meteorologica,2013-11-09 22:47:00,
2013-11-09 17:52:00,53.6,36.6,30.26,East,79,0.0,0.0,52,0.00,,,0.00,Meteorologica,2013-11-09 22:52:00,
2013-11-09 17:57:00,53.4,36.6,30.25,East,79,0.0,0.0,52,0.00,,,0.00,Meteorologica,2013-11-09 22:57:00,
2013-11-09 18:02:00,53.3,37.0,30.26,East,79,0.0,0.0,53,0.00,,,0.00,Meteorologica,2013-11-09 23:02:00,
2013-11-09 18:07:00,53.2,36.8,30.25,East,79,0.0,0.0,53,0.00,,,0.00,Meteorologica,2013-11-09 23:07:00,
2013-11-09 18:13:00,53.0,36.9,30.25,East,79,0.0,0.0,54,0.00,,,0.00,Meteorologica,2013-11-09 23:13:00,
2013-11-09 18:18:00,52.9,36.7,30.25,East,79,0.0,0.0,53,0.00,,,0.00,Meteorologica,2013-11-09 23:18:00,
2013-11-09 18:23:00,52.6,36.5,30.25,East,79,0.0,0.0,54,0.00,,,0.00,Meteorologica,2013-11-09 23:23:00,
2013-11-09 18:28:00,52.4,36.9,30.25,East,79,0.0,0.0,55,0.00,,,0.00,Meteorologica,2013-11-09 23:28:00,
2013-11-09 18:33:00,52.3,36.9,30.26,SSW,196,1.5,0.0,55,0.00,,,0.00,Meteorologica,2013-11-09 23:33:00,
2013-11-09 18:38:00,52.2,36.7,30.27,ESE,103,2.2,4.5,55,0.00,,,0.00,Meteorologica,2013-11-09 23:38:00,
2013-11-09 18:43:00,52.0,36.4,30.28,South,183,1.2,3.8,55,0.00,,,0.00,Meteorologica,2013-11-09 23:43:00,
2013-11-09 18:48:00,52.0,36.6,30.28,SSE,149,0.0,5.6,55,0.00,,,0.00,Meteorologica,2013-11-09 23:48:00,
2013-11-09 18:53:00,51.9,37.0,30.29,South,179,0.6,0.0,56,0.00,,,0.00,Meteorologica,2013-11-09 23:53:00,
2013-11-09 18:58:00,51.9,36.9,30.29,SSW,196,2.4,2.9,56,0.00,,,0.00,Meteorologica,2013-11-09 23:58:00,
2013-11-09 19:03:00,51.9,36.9,30.29,South,179,0.4,4.3,56,0.00,,,0.00,Meteorologica,2013-11-10 00:03:00,
2013-11-09 19:08:00,51.8,37.0,30.29,SSW,194,0.7,2.4,56,0.00,,,0.00,Meteorologica,2013-11-10 00:08:00,
2013-11-09 19:13:00,51.7,37.1,30.29,SSW,194,0.2,3.2,57,0.00,,,0.00,Meteorologica,2013-11-10 00:13:00,
2013-11-09 19:18:00,51.6,36.9,30.29,SSW,211,1.6,1.6,56,0.00,,,0.00,Meteorologica,2013-11-10 00:18:00,
2013-11-09 19:23:00,51.5,37.1,30.29,SSW,201,0.1,4.0,57,0.00,,,0.00,Meteorologica,2013-11-10 00:23:00,
2013-11-09 19:28:00,51.3,37.1,30.29,SW,216,1.7,2.9,58,0.00,,,0.00,Meteorologica,2013-11-10 00:28:00,
2013-11-09 19:33:00,51.2,37.3,30.29,SE,127,0.0,2.9,58,0.00,,,0.00,Meteorologica,2013-11-10 00:33:00,
2013-11-09 19:39:00,51.1,38.2,30.29,SE,127,0.0,0.0,61,0.00,,,0.00,Meteorologica,2013-11-10 00:39:00,
2013-11-09 19:44:00,50.9,37.7,30.29,SE,127,0.0,0.0,60,0.00,,,0.00,Meteorologica,2013-11-10 00:44:00,
2013-11-09 19:49:00,50.8,37.8,30.29,SE,127,0.0,0.0,60,0.00,,,0.00,Meteorologica,2013-11-10 00:49:00,
2013-11-09 19:54:00,50.6,37.5,30.29,SE,127,0.0,0.0,60,0.00,,,0.00,Meteorologica,2013-11-10 00:54:00,
2013-11-09 19:59:00,50.2,37.3,30.29,SE,127,0.0,0.0,60,0.00,,,0.00,Meteorologica,2013-11-10 00:59:00,
2013-11-09 20:04:00,50.1,37.5,30.29,SE,127,0.0,0.0,61,0.00,,,0.00,Meteorologica,2013-11-10 01:04:00,
2013-11-09 20:09:00,49.8,37.4,30.29,SE,127,0.0,0.0,61,0.00,,,0.00,Meteorologica,2013-11-10 01:09:00,
2013-11-09 20:15:00,49.6,37.3,30.29,SE,127,0.0,0.0,62,0.00,,,0.00,Meteorologica,2013-11-10 01:15:00,
2013-11-09 20:20:00,49.4,37.1,30.29,SE,127,0.0,0.0,62,0.00,,,0.00,Meteorologica,2013-11-10 01:20:00,
2013-11-09 20:25:00,49.4,37.2,30.29,SW,223,0.0,0.0,62,0.00,,,0.00,Meteorologica,2013-11-10 01:25:00,
2013-11-09 20:30:00,49.4,37.3,30.29,South,169,0.2,3.5,62,0.00,,,0.00,Meteorologica,2013-11-10 01:30:00,
2013-11-09 20:35:00,49.2,37.1,30.29,SSW,196,1.1,1.7,62,0.00,,,0.00,Meteorologica,2013-11-10 01:35:00,
2013-11-09 20:40:00,48.9,36.9,30.29,SSE,151,1.6,4.1,62,0.00,,,0.00,Meteorologica,2013-11-10 01:40:00,
2013-11-09 20:45:00,48.9,37.0,30.29,SSW,201,1.4,4.8,63,0.00,,,0.00,Meteorologica,2013-11-10 01:45:00,
2013-11-09 20:50:00,48.9,37.0,30.29,SSE,152,0.1,6.4,63,0.00,,,0.00,Meteorologica,2013-11-10 01:50:00,
2013-11-09 20:55:00,48.9,37.3,30.29,SW,215,0.9,3.7,63,0.00,,,0.00,Meteorologica,2013-11-10 01:55:00,
2013-11-09 21:00:00,48.7,37.2,30.29,SSW,197,0.1,4.2,64,0.00,,,0.00,Meteorologica,2013-11-10 02:00:00,
2013-11-09 21:05:00,48.6,37.1,30.28,SSW,196,1.9,2.9,64,0.00,,,0.00,Meteorologica,2013-11-10 02:05:00,
2013-11-09 21:11:00,48.6,37.1,30.28,SSW,196,0.0,0.0,64,0.00,,,0.00,Meteorologica,2013-11-10 02:11:00,
2013-11-09 21:16:00,48.5,37.1,30.29,SW,217,0.1,2.5,64,0.00,,,0.00,Meteorologica,2013-11-10 02:16:00,
2013-11-09 21:21:00,48.5,37.8,30.29,SW,217,0.0,0.0,66,0.00,,,0.00,Meteorologica,2013-11-10 02:21:00,
2013-11-09 21:27:00,48.4,37.7,30.29,SW,217,0.0,0.0,66,0.00,,,0.00,Meteorologica,2013-11-10 02:27:00,
2013-11-09 21:32:00,48.3,38.3,30.29,SW,217,0.0,0.0,68,0.00,,,0.00,Meteorologica,2013-11-10 02:32:00,
2013-11-09 21:37:00,48.0,37.6,30.29,SW,217,0.0,0.0,66,0.00,,,0.00,Meteorologica,2013-11-10 02:37:00,
2013-11-09 21:42:00,47.9,37.5,30.29,SW,217,0.0,0.0,66,0.00,,,0.00,Meteorologica,2013-11-10 02:42:00,
2013-11-09 21:47:00,47.6,37.4,30.29,SW,217,0.0,0.0,67,0.00,,,0.00,Meteorologica,2013-11-10 02:47:00,
2013-11-09 21:52:00,47.5,37.3,30.28,SW,217,0.0,0.0,67,0.00,,,0.00,Meteorologica,2013-11-10 02:52:00,
2013-11-09 21:58:00,47.5,37.2,30.28,SW,217,0.0,0.0,67,0.00,,,0.00,Meteorologica,2013-11-10 02:58:00,
2013-11-09 23:00:00,47.5,37.9,30.28,SSW,213,1.2,0.0,68,0.00,,,0.00,Meteorologica,2013-11-10 04:00:00,
2013-11-09 23:05:00,47.4,37.7,30.28,SSW,211,0.0,1.8,68,0.00,,,0.00,Meteorologica,2013-11-10 04:05:00,
2013-11-09 23:11:00,47.5,37.7,30.28,SSW,211,0.0,0.0,68,0.00,,,0.00,Meteorologica,2013-11-10 04:11:00,
2013-11-09 23:16:00,47.3,38.3,30.28,SSW,211,0.0,0.0,70,0.00,,,0.00,Meteorologica,2013-11-10 04:16:00,
2013-11-09 23:21:00,47.4,38.6,30.28,SSW,211,0.0,0.0,71,0.00,,,0.00,Meteorologica,2013-11-10 04:21:00,
2013-11-09 23:26:00,47.2,38.4,30.28,SSW,211,0.0,0.0,71,0.00,,,0.00,Meteorologica,2013-11-10 04:26:00,
2013-11-09 23:31:00,47.3,38.5,30.28,SSW,211,0.0,0.0,71,0.00,,,0.00,Meteorologica,2013-11-10 04:31:00,
2013-11-09 23:36:00,47.2,39.1,30.28,SSW,211,0.0,0.0,73,0.00,,,0.00,Meteorologica,2013-11-10 04:36:00,
2013-11-09 23:41:00,47.1,38.5,30.28,SSW,211,0.0,0.0,71,0.00,,,0.00,Meteorologica,2013-11-10 04:41:00,
2013-11-09 23:46:00,47.1,38.4,30.28,SSW,211,0.0,0.0,71,0.00,,,0.00,Meteorologica,2013-11-10 04:46:00,
2013-11-09 23:51:00,47.0,38.3,30.28,SSW,211,0.0,0.0,71,0.00,,,0.00,Meteorologica,2013-11-10 04:51:00,